Time;durP1;ratioP1;P1;durP2;ratioP2;P2;SDS_P1;SDS_P2;PMS_P1;PMS_P2;Temp;Humidity;BMP_temperature;BMP_pressure;BME280_temperature;BME280_humidity;BME280_pressure;Samples;Min_cycle;Max_cycle;Signal;HPM_P1;HPM_P2
2023/07/09 00:01:47;;;;;;;5.15;4.75;;;;;;;;;;5038808;28;20174;-76
2023/07/09 00:04:13;;;;;;;4.93;4.53;;;;;;;;;;5031252;28;20187;-77
2023/07/09 00:06:40;;;;;;;5.72;5.22;;;18.70;1.00;;;;;;5040017;28;20206;-77
2023/07/09 00:09:11;;;;;;;5.10;4.70;;;18.70;1.00;;;;;;5036312;28;20183;-77
2023/07/09 00:11:37;;;;;;;5.28;4.60;;;19.00;1.00;;;;;;5038721;28;20178;-77
2023/07/09 00:14:05;;;;;;;5.18;4.65;;;18.70;1.00;;;;;;5035744;28;20314;-77
2023/07/09 00:16:31;;;;;;;5.65;4.97;;;18.90;1.00;;;;;;5034109;28;20336;-77
2023/07/09 00:18:57;;;;;;;5.07;4.68;;;;;;;;;;5035077;28;20262;-77
2023/07/09 00:21:23;;;;;;;5.65;4.55;;;18.60;1.00;;;;;;5037668;28;20181;-77
2023/07/09 00:23:49;;;;;;;4.85;4.35;;;;;;;;;;5044437;28;20182;-77
2023/07/09 00:26:16;;;;;;;4.88;4.43;;;18.80;1.00;;;;;;5033333;28;20212;-76
2023/07/09 00:28:43;;;;;;;5.10;4.60;;;;;;;;;;5017648;28;20183;-77
2023/07/09 00:31:14;;;;;;;4.85;4.45;;;18.40;1.00;;;;;;5017582;28;20723;-77
2023/07/09 00:33:41;;;;;;;5.28;4.78;;;18.40;1.00;;;;;;5037641;28;20178;-76
2023/07/09 00:36:21;;;;;;;5.10;4.70;;;18.60;1.00;;;;;;5035722;28;20257;-77
2023/07/09 00:38:47;;;;;;;5.45;4.95;;;;;;;;;;5034620;28;20180;-76
2023/07/09 00:41:19;;;;;;;5.50;5.00;;;18.00;99.90;;;;;;5029920;28;20178;-76
2023/07/09 00:43:46;;;;;;;5.45;4.95;;;18.20;1.00;;;;;;5033609;28;20183;-77
2023/07/09 00:46:26;;;;;;;5.07;4.50;;;17.90;1.00;;;;;;5036514;28;20213;-76
2023/07/09 00:49:04;;;;;;;5.15;4.50;;;17.90;1.00;;;;;;5031922;28;20179;-76
2023/07/09 00:51:32;;;;;;;5.00;4.50;;;18.20;99.90;;;;;;5032947;28;20194;-76
2023/07/09 00:54:09;;;;;;;5.97;4.88;;;18.10;1.00;;;;;;5034244;28;20210;-76
2023/07/09 00:56:40;;;;;;;6.47;4.80;;;17.90;1.00;;;;;;5019665;28;20587;-76
2023/07/09 00:59:11;;;;;;;5.47;4.88;;;18.10;1.00;;;;;;5037026;28;20664;-77
2023/07/09 01:01:40;;;;;;;5.15;4.55;;;18.10;1.00;;;;;;5022715;28;20313;-77
2023/07/09 01:04:08;;;;;;;5.38;4.88;;;18.00;1.00;;;;;;5032681;28;20172;-77
2023/07/09 01:06:39;;;;;;;4.80;4.30;;;18.20;1.00;;;;;;5013936;28;20199;-77
2023/07/09 01:09:07;;;;;;;5.22;4.72;;;18.70;1.00;;;;;;5032552;28;20179;-77
2023/07/09 01:11:33;;;;;;;5.47;4.97;;;;;;;;;;5029964;28;20187;-77
2023/07/09 01:14:02;;;;;;;5.45;4.95;;;17.90;1.00;;;;;;5009499;28;20550;-77
2023/07/09 01:16:31;;;;;;;5.13;4.65;;;17.90;1.00;;;;;;5034462;28;20300;-76
2023/07/09 01:18:57;;;;;;;6.10;4.82;;;18.00;1.00;;;;;;5032293;28;20190;-76
2023/07/09 01:21:23;;;;;;;5.18;4.57;;;17.50;1.00;;;;;;5036124;28;20174;-76
2023/07/09 01:23:50;;;;;;;5.63;5.10;;;17.80;1.00;;;;;;5034524;28;20911;-77
2023/07/09 01:26:18;;;;;;;5.40;4.93;;;17.90;99.90;;;;;;5034696;28;20202;-77
2023/07/09 01:28:44;;;;;;;6.95;5.40;;;17.70;1.00;;;;;;5030458;28;20182;-77
2023/07/09 01:31:12;;;;;;;5.55;5.03;;;17.40;1.00;;;;;;5038813;28;20313;-76
2023/07/09 01:33:39;;;;;;;5.60;4.40;;;;;;;;;;5038324;28;20205;-77
2023/07/09 01:36:09;;;;;;;4.97;4.57;;;18.00;84.40;;;;;;5032571;28;20210;-77
2023/07/09 01:38:35;;;;;;;5.55;5.15;;;;;;;;;;5030757;28;20197;-77
2023/07/09 01:41:02;;;;;;;5.05;4.60;;;17.70;1.00;;;;;;5036009;28;20287;-76
2023/07/09 01:43:29;;;;;;;6.05;5.05;;;17.70;1.00;;;;;;5035656;28;20174;-76
2023/07/09 01:45:57;;;;;;;5.40;4.90;;;;;;;;;;5036310;28;20222;-76
2023/07/09 01:48:24;;;;;;;5.00;4.50;;;17.30;1.00;;;;;;5036863;28;20539;-77
2023/07/09 01:50:51;;;;;;;5.28;4.80;;;17.60;1.00;;;;;;5030548;28;20186;-77
2023/07/09 01:53:25;;;;;;;5.72;5.22;;;18.00;1.00;;;;;;5030369;28;20667;-77
2023/07/09 01:55:51;;;;;;;5.85;5.22;;;;;;;;;;5016494;28;20262;-77
2023/07/09 01:58:17;;;;;;;5.72;5.20;;;;;;;;;;5034061;28;20182;-77
2023/07/09 02:00:44;;;;;;;6.43;5.65;;;17.50;1.00;;;;;;5028431;28;20194;-77
2023/07/09 02:03:11;;;;;;;5.68;5.18;;;17.40;1.00;;;;;;5026601;28;20174;-77
2023/07/09 02:05:37;;;;;;;6.05;5.45;;;;;;;;;;5036643;28;20217;-76
2023/07/09 02:08:03;;;;;;;6.38;5.53;;;17.80;1.00;;;;;;5034453;28;20190;-77
2023/07/09 02:10:29;;;;;;;5.00;4.60;;;;;;;;;;5038149;28;20205;-76
2023/07/09 02:12:55;;;;;;;6.50;5.90;;;17.60;1.00;;;;;;5033653;28;20201;-76
2023/07/09 02:15:21;;;;;;;6.32;5.68;;;;;;;;;;5027240;28;20202;-76
2023/07/09 02:17:47;;;;;;;9.75;5.20;;;17.50;1.00;;;;;;5013504;28;20684;-77
2023/07/09 02:20:13;;;;;;;6.00;5.45;;;17.10;1.00;;;;;;5035289;28;20216;-77
2023/07/09 02:22:41;;;;;;;6.82;5.53;;;17.20;1.00;;;;;;5014523;28;20246;-77
2023/07/09 02:25:07;;;;;;;5.85;5.30;;;17.30;1.00;;;;;;5024576;28;20174;-77
2023/07/09 02:27:33;;;;;;;6.07;5.57;;;17.30;1.00;;;;;;5030828;28;20553;-77
2023/07/09 02:30:00;;;;;;;5.70;5.20;;;;;;;;;;5033063;28;20214;-77
2023/07/09 02:32:26;;;;;;;6.15;5.63;;;17.30;1.00;;;;;;5029181;28;20406;-77
2023/07/09 02:34:54;;;;;;;5.78;5.28;;;17.30;1.00;;;;;;5038079;28;20178;-76
2023/07/09 02:37:25;;;;;;;5.55;5.05;;;17.50;1.00;;;;;;5035082;28;20210;-77
2023/07/09 02:39:51;;;;;;;6.20;5.50;;;;;;;;;;5014450;28;20324;-76
2023/07/09 02:42:18;;;;;;;6.72;6.13;;;17.20;99.90;;;;;;5013785;28;20189;-76
2023/07/09 02:44:45;;;;;;;5.65;5.15;;;17.40;99.90;;;;;;5035994;28;20178;-77
2023/07/09 02:47:11;;;;;;;5.32;4.82;;;17.20;1.00;;;;;;5031292;28;20592;-77
2023/07/09 02:49:37;;;;;;;5.32;4.93;;;17.20;1.00;;;;;;5033458;28;20277;-78
2023/07/09 02:52:04;;;;;;;6.93;5.65;;;;;;;;;;5037470;28;20181;-76
2023/07/09 02:54:30;;;;;;;5.70;5.20;;;;;;;;;;5034204;28;20210;-77
2023/07/09 02:56:56;;;;;;;5.78;5.28;;;17.20;99.90;;;;;;5029322;28;20253;-77
2023/07/09 02:59:22;;;;;;;5.65;5.15;;;17.10;1.00;;;;;;5015158;28;20235;-77
2023/07/09 03:01:48;;;;;;;5.35;4.85;;;17.30;99.90;;;;;;5031923;28;20179;-76
2023/07/09 03:04:15;;;;;;;5.65;5.03;;;;;;;;;;5026236;23;20700;-84
2023/07/09 03:06:41;;;;;;;5.35;4.85;;;;;;;;;;5035466;28;20652;-84
2023/07/09 03:09:07;;;;;;;5.10;4.70;;;;;;;;;;5026926;28;20214;-85
2023/07/09 03:11:34;;;;;;;5.68;5.13;;;17.40;1.00;;;;;;5044791;28;20239;-85
2023/07/09 03:14:01;;;;;;;5.88;5.30;;;17.10;1.00;;;;;;5026807;28;20206;-84
2023/07/09 03:16:32;;;;;;;6.18;5.57;;;16.80;1.00;;;;;;5037000;28;20190;-84
2023/07/09 03:18:58;;;;;;;5.78;5.28;;;;;;;;;;5018735;28;20205;-84
2023/07/09 03:21:26;;;;;;;5.18;4.70;;;17.10;1.00;;;;;;5045313;28;20185;-84
2023/07/09 03:23:52;;;;;;;6.75;5.40;;;17.20;1.00;;;;;;5036215;28;20919;-85
2023/07/09 03:26:18;;;;;;;6.88;4.75;;;;;;;;;;5027324;28;20276;-84
2023/07/09 03:28:44;;;;;;;7.60;5.53;;;;;;;;;;5044625;28;20289;-84
2023/07/09 03:31:10;;;;;;;5.55;5.13;;;;;;;;;;5045378;28;20178;-85
2023/07/09 03:33:36;;;;;;;5.90;5.40;;;;;;;;;;5027326;28;20205;-85
2023/07/09 03:36:04;;;;;;;5.20;4.70;;;;;;;;;;5026924;28;20285;-85
2023/07/09 03:38:30;;;;;;;6.10;5.45;;;;;;;;;;5044783;28;20268;-84
2023/07/09 03:40:56;;;;;;;7.15;5.30;;;;;;;;;;5027377;28;20186;-85
2023/07/09 03:43:22;;;;;;;5.60;5.10;;;;;;;;;;5030801;28;20193;-85
2023/07/09 03:45:49;;;;;;;6.15;5.65;;;;;;;;;;5048707;28;20182;-85
2023/07/09 03:48:16;;;;;;;5.95;5.10;;;17.40;1.00;;;;;;5030655;28;20618;-84
2023/07/09 03:50:44;;;;;;;5.70;5.20;;;17.40;1.00;;;;;;5030951;28;21207;-84
2023/07/09 03:53:10;;;;;;;8.63;5.60;;;;;;;;;;5047692;28;20185;-85
2023/07/09 03:55:37;;;;;;;5.15;4.65;;;;;;;;;;5048870;28;20202;-85
2023/07/09 03:58:03;;;;;;;5.97;5.30;;;;;;;;;;5030544;28;20178;-85
2023/07/09 04:00:30;;;;;;;5.32;4.82;;;17.50;1.00;;;;;;5048769;28;20181;-85
2023/07/09 04:02:56;;;;;;;5.78;5.20;;;;;;;;;;5030507;28;20170;-85
2023/07/09 04:05:26;;;;;;;5.28;4.88;;;17.60;1.00;;;;;;5030057;28;20304;-85
2023/07/09 04:07:52;;;;;;;5.82;5.32;;;;;;;;;;5030019;28;20178;-84
2023/07/09 04:10:19;;;;;;;5.47;4.97;;;17.40;1.00;;;;;;5021924;28;20248;-85
2023/07/09 04:12:45;;;;;;;5.35;4.82;;;;;;;;;;5030018;28;20182;-85
2023/07/09 04:15:14;;;;;;;6.88;4.75;;;17.80;1.00;;;;;;5020813;28;20201;-85
2023/07/09 04:17:40;;;;;;;5.78;5.28;;;17.80;1.00;;;;;;5048069;28;20722;-86
2023/07/09 04:20:09;;;;;;;6.35;5.70;;;17.80;1.00;;;;;;5038882;28;20190;-91
2023/07/09 04:22:35;;;;;;;5.57;5.07;;;;;;;;;;5039468;28;20170;-92
2023/07/09 04:25:03;;;;;;;5.65;5.00;;;;;;;;;;5039517;28;20197;-91
2023/07/09 04:27:29;;;;;;;7.32;5.45;;;;;;;;;;5039890;28;20546;-91
2023/07/09 04:29:55;;;;;;;6.40;5.80;;;;;;;;;;5040090;28;20277;-92
2023/07/09 04:32:22;;;;;;;6.13;5.55;;;;;;;;;;5039737;28;20214;-91
2023/07/09 04:34:48;;;;;;;5.95;5.35;;;;;;;;;;5039741;28;20198;-92
2023/07/09 04:37:16;;;;;;;6.05;5.50;;;;;;;;;;5040395;28;20210;-91
2023/07/09 04:39:42;;;;;;;5.90;5.20;;;;;;;;;;5040107;28;20175;-92
2023/07/09 04:42:13;;;;;;;5.80;5.30;;;18.70;1.00;;;;;;5040162;28;20177;-92
2023/07/09 04:44:39;;;;;;;6.43;5.57;;;;;;;;;;5039765;28;20198;-92
2023/07/09 04:47:08;;;;;;;6.15;5.55;;;;;;;;;;5039772;28;20193;-92
2023/07/09 04:49:34;;;;;;;5.07;4.68;;;;;;;;;;5040196;28;20182;-92
2023/07/09 04:52:00;;;;;;;5.43;4.93;;;;;;;;;;5040318;28;20214;-92
2023/07/09 04:54:27;;;;;;;5.25;4.75;;;;;;;;;;5038556;28;20672;-92
2023/07/09 04:56:53;;;;;;;5.20;4.80;;;;;;;;;;5039793;28;20209;-92
2023/07/09 04:59:19;;;;;;;5.43;5.00;;;;;;;;;;5040382;28;20265;-92
2023/07/09 05:01:45;;;;;;;5.47;5.07;;;;;;;;;;5041788;28;20170;-92
2023/07/09 05:04:14;;;;;;;5.55;4.60;;;;;;;;;;5041017;28;20210;-92
2023/07/09 05:06:40;;;;;;;5.15;4.68;;;;;;;;;;5040634;28;20273;-92
2023/07/09 05:09:06;;;;;;;6.50;4.57;;;;;;;;;;5039548;28;20269;-92
2023/07/09 05:11:35;;;;;;;5.10;4.68;;;25.10;1.00;;;;;;5039151;28;20186;-92
2023/07/09 05:14:01;;;;;;;4.97;4.63;;;;;;;;;;5038630;28;20687;-93
2023/07/09 05:16:29;;;;;;;5.57;5.07;;;;;;;;;;5038464;28;20198;-93
2023/07/09 05:18:55;;;;;;;6.78;4.60;;;;;;;;;;5038891;28;20170;-92
2023/07/09 05:21:27;;;;;;;4.90;4.50;;;27.80;99.90;;;;;;5039047;28;20178;-93
2023/07/09 05:23:55;;;;;;;4.82;4.40;;;28.60;99.90;;;;;;5039065;28;20202;-92
2023/07/09 05:26:21;;;;;;;5.18;4.68;;;;;;;;;;5038787;28;20166;-93
2023/07/09 05:28:47;;;;;;;4.95;4.53;;;;;;;;;;5037882;28;20652;-93
2023/07/09 05:31:24;;;;;;;6.22;4.60;;;29.50;99.90;;;;;;5039394;28;20178;-92
2023/07/09 05:33:53;;;;;;;5.38;4.88;;;29.80;99.90;;;;;;5038823;28;20239;-93
2023/07/09 05:36:19;;;;;;;5.00;4.60;;;;;;;;;;5037944;28;20210;-92
2023/07/09 05:38:51;;;;;;;5.18;4.78;;;30.20;99.90;;;;;;5038797;28;20189;-93
2023/07/09 05:41:25;;;;;;;6.43;4.82;;;29.90;99.90;;;;;;5038387;28;20182;-93
2023/07/09 05:43:54;;;;;;;5.38;4.88;;;30.20;99.90;;;;;;5038742;28;20219;-93
2023/07/09 05:46:26;;;;;;;5.07;4.68;;;30.30;99.90;;;;;;5038225;28;20186;-93
2023/07/09 05:48:57;;;;;;;5.22;4.75;;;31.00;99.90;;;;;;5038146;28;20162;-93
2023/07/09 05:51:24;;;;;;;5.35;4.95;;;;;;;;;;5038197;28;20206;-92
2023/07/09 05:54:08;;;;;;;5.35;4.85;;;31.10;99.90;;;;;;5038661;28;20202;-94
2023/07/09 05:56:55;;;;;;;;;;;;;;;;;;;;;
2023/07/09 05:59:41;;;;;;;4.75;4.32;;;31.10;99.90;;;;;;5057287;28;20249;-94
2023/07/09 06:02:35;;;;;;;5.47;4.90;;;31.50;99.90;;;;;;5039218;28;20624;-93
2023/07/09 06:05:09;;;;;;;5.40;5.00;;;31.60;99.90;;;;;;5038459;28;20213;-93
2023/07/09 06:07:44;;;;;;;5.45;5.03;;;31.30;99.90;;;;;;5043409;28;20174;-94
2023/07/09 06:10:25;;;;;;;5.38;5.00;;;32.00;99.90;;;;;;5038454;28;20177;-94
2023/07/09 06:12:51;;;;;;;5.63;5.10;;;;;;;;;;5038427;28;20617;-93
2023/07/09 06:15:17;;;;;;;5.82;5.35;;;;;;;;;;5037153;28;20213;-92
2023/07/09 06:17:46;;;;;;;5.93;5.35;;;32.30;99.90;;;;;;5042721;28;20308;-92
2023/07/09 06:23:51;;;;;;;5.35;4.90;;;32.50;99.90;;;;;;5074002;22;20197;-78
2023/07/09 06:26:46;;;;;;;5.93;5.40;;;32.10;99.90;;;;;;5051954;28;21047;-76
2023/07/09 06:29:16;;;;;;;5.75;5.30;;;31.70;75.70;;;;;;5045158;28;20201;-77
2023/07/09 06:31:42;;;;;;;5.90;5.50;;;;;;;;;;5046680;28;20231;-77
2023/07/09 06:34:09;;;;;;;5.88;5.47;;;;;;;;;;5062850;28;20181;-78
2023/07/09 06:36:35;;;;;;;5.63;5.22;;;32.50;60.00;;;;;;5064088;28;20296;-77
2023/07/09 06:39:01;;;;;;;5.72;5.22;;;33.00;15.70;;;;;;5045812;28;20724;-78
2023/07/09 06:41:27;;;;;;;5.85;5.35;;;;;;;;;;5062894;28;20209;-78
2023/07/09 06:43:53;;;;;;;6.05;5.55;;;32.30;8.10;;;;;;5046047;28;20652;-78
2023/07/09 06:46:20;;;;;;;5.97;5.47;;;32.00;1.00;;;;;;5064725;28;20243;-78
2023/07/09 06:48:46;;;;;;;6.18;5.68;;;;;;;;;;5063898;28;20177;-77
2023/07/09 06:51:12;;;;;;;5.47;5.00;;;33.30;1.00;;;;;;5064352;28;20179;-78
2023/07/09 06:53:39;;;;;;;6.20;5.70;;;;;;;;;;5065204;28;20227;-77
2023/07/09 06:56:05;;;;;;;6.43;5.82;;;33.70;99.90;;;;;;5065202;28;20213;-77
2023/07/09 06:58:33;;;;;;;6.13;5.25;;;34.80;99.90;;;;;;5060695;28;20188;-76
2023/07/09 07:01:03;;;;;;;6.30;5.78;;;35.50;99.90;;;;;;5064085;28;20185;-75
2023/07/09 07:03:29;;;;;;;6.43;5.90;;;35.40;99.90;;;;;;5064643;28;20188;-75
2023/07/09 07:05:55;;;;;;;6.43;5.93;;;34.00;1.00;;;;;;5063863;28;20205;-78
2023/07/09 07:08:24;;;;;;;5.78;5.28;;;34.40;1.00;;;;;;5063487;28;20193;-77
2023/07/09 07:10:50;;;;;;;6.20;5.70;;;34.40;9.10;;;;;;5064338;28;20256;-75
2023/07/09 07:13:16;;;;;;;5.95;5.55;;;33.40;1.60;;;;;;5063873;28;20186;-76
2023/07/09 07:15:49;;;;;;;6.40;5.80;;;34.00;9.80;;;;;;5063913;28;20255;-76
2023/07/09 07:18:15;;;;;;;6.93;6.30;;;33.40;5.60;;;;;;5066846;28;20227;-77
2023/07/09 07:20:40;;;;;;;6.93;6.32;;;32.30;1.00;;;;;;5067916;28;20189;-76
2023/07/09 07:23:06;;;;;;;6.35;5.85;;;33.80;6.60;;;;;;5067395;28;20188;-76
2023/07/09 07:25:33;;;;;;;6.07;5.68;;;33.90;4.30;;;;;;5067681;28;20215;-74
2023/07/09 07:27:59;;;;;;;5.95;5.55;;;;;;;;;;5042056;28;20197;-76
2023/07/09 07:30:25;;;;;;;6.25;5.70;;;33.90;1.00;;;;;;5068060;28;20188;-75
2023/07/09 07:32:50;;;;;;;5.88;5.38;;;32.90;1.00;;;;;;5049992;28;20182;-75
2023/07/09 07:35:17;;;;;;;6.40;5.90;;;31.80;5.20;;;;;;5068347;28;20189;-79
2023/07/09 07:37:43;;;;;;;5.78;5.32;;;;;;;;;;5067015;28;20248;-77
2023/07/09 07:40:10;;;;;;;7.45;5.97;;;29.50;1.00;;;;;;5067914;28;20247;-76
2023/07/09 07:42:36;;;;;;;6.38;5.88;;;28.80;19.80;;;;;;5067972;28;20260;-77
2023/07/09 07:45:03;;;;;;;9.65;5.57;;;28.50;22.10;;;;;;5068690;28;20296;-77
2023/07/09 07:47:29;;;;;;;6.38;5.78;;;;;;;;;;5048288;28;20174;-78
2023/07/09 07:49:56;;;;;;;6.40;5.90;;;;;;;;;;5066429;28;20246;-79
2023/07/09 07:52:22;;;;;;;6.45;5.85;;;;;;;;;;5048892;28;20177;-78
2023/07/09 07:54:48;;;;;;;5.57;5.10;;;;;;;;;;5066381;28;21211;-77
2023/07/09 07:57:13;;;;;;;6.45;5.80;;;28.10;50.90;;;;;;5058337;28;20213;-78
2023/07/09 07:59:39;;;;;;;9.30;5.60;;;28.10;64.20;;;;;;5068959;28;20193;-78
2023/07/09 08:02:10;;;;;;;5.70;5.20;;;28.10;1.00;;;;;;5070091;28;20192;-77
2023/07/09 08:04:36;;;;;;;6.82;5.80;;;;;;;;;;5068489;28;20173;-80
2023/07/09 08:07:02;;;;;;;6.38;5.60;;;28.30;35.60;;;;;;5067122;28;20570;-79
2023/07/09 08:09:29;;;;;;;5.85;5.43;;;28.40;1.00;;;;;;5067139;28;20219;-76
2023/07/09 08:11:54;;;;;;;6.25;5.70;;;27.70;1.00;;;;;;5063784;28;20193;-78
2023/07/09 08:14:20;;;;;;;5.95;5.45;;;;;;;;;;5067379;28;20196;-78
2023/07/09 08:16:47;;;;;;;6.20;5.60;;;28.20;99.90;;;;;;5065896;28;20209;-78
2023/07/09 08:19:13;;;;;;;5.60;5.03;;;;;;;;;;5062185;28;20208;-77
2023/07/09 08:21:39;;;;;;;5.60;5.10;;;27.90;40.60;;;;;;5063009;28;20174;-77
2023/07/09 08:24:05;;;;;;;5.90;5.40;;;27.80;1.00;;;;;;5065269;28;20232;-76
2023/07/09 08:26:32;;;;;;;6.90;5.90;;;27.90;47.30;;;;;;5048031;28;20212;-78
2023/07/09 08:28:58;;;;;;;5.90;5.40;;;28.30;1.00;;;;;;5064721;28;20238;-79
2023/07/09 08:31:24;;;;;;;7.57;5.80;;;27.90;40.10;;;;;;5066851;28;20182;-79
2023/07/09 08:33:49;;;;;;;6.15;5.63;;;28.00;57.10;;;;;;5065245;28;20625;-77
2023/07/09 08:36:15;;;;;;;5.88;5.38;;;;;;;;;;5067758;28;20204;-78
2023/07/09 08:38:41;;;;;;;5.90;5.28;;;28.40;64.60;;;;;;5066476;28;20189;-77
2023/07/09 08:41:17;;;;;;;5.93;5.53;;;28.10;32.50;;;;;;5068077;28;20551;-77
2023/07/09 08:43:49;;;;;;;5.63;5.15;;;28.50;1.00;;;;;;5048955;28;20647;-79
2023/07/09 08:46:32;;;;;;;5.68;5.13;;;28.30;23.30;;;;;;5067681;28;20952;-78
2023/07/09 08:49:01;;;;;;;7.93;5.45;;;28.60;99.90;;;;;;5065834;28;20644;-77
2023/07/09 08:51:36;;;;;;;6.28;5.55;;;28.80;48.20;;;;;;5067750;28;20546;-78
2023/07/09 08:54:03;;;;;;;6.22;5.70;;;;;;;;;;5066718;28;20188;-78
2023/07/09 08:56:32;;;;;;;7.13;5.70;;;29.00;99.90;;;;;;5067093;28;20209;-78
2023/07/09 08:59:01;;;;;;;5.85;5.35;;;29.00;99.90;;;;;;5048826;28;20178;-77
2023/07/09 09:01:34;;;;;;;5.82;5.28;;;28.90;67.70;;;;;;5066951;28;20264;-76
2023/07/09 09:04:31;;;;;;;7.25;5.65;;;28.90;30.20;;;;;;5066249;28;20182;-75
2023/07/09 09:07:10;;;;;;;5.82;5.32;;;28.90;99.90;;;;;;5058393;28;20231;-75
2023/07/09 09:09:56;;;;;;;6.30;5.70;;;28.80;62.30;;;;;;5063482;28;20188;-76
2023/07/09 09:12:29;;;;;;;5.85;5.45;;;29.00;99.90;;;;;;5062568;28;20174;-76
2023/07/09 09:15:00;;;;;;;6.20;5.40;;;28.90;46.70;;;;;;5065561;28;20223;-76
2023/07/09 09:17:28;;;;;;;6.13;5.57;;;28.70;28.60;;;;;;5038377;28;20254;-75
2023/07/09 09:20:17;;;;;;;6.03;5.43;;;29.10;41.50;;;;;;5063818;28;20220;-78
2023/07/09 09:22:52;;;;;;;6.22;5.55;;;29.00;46.30;;;;;;5063308;28;20605;-80
2023/07/09 09:25:33;;;;;;;8.88;5.72;;;29.00;58.00;;;;;;5063004;28;21040;-79
2023/07/09 09:28:02;;;;;;;5.38;4.88;;;29.10;99.90;;;;;;5064623;28;20242;-77
2023/07/09 09:30:29;;;;;;;6.10;5.50;;;29.10;29.20;;;;;;5057312;28;20189;-77
2023/07/09 09:33:01;;;;;;;5.57;5.07;;;29.20;37.80;;;;;;5067640;28;20256;-78
2023/07/09 09:35:35;;;;;;;5.55;5.05;;;29.30;99.90;;;;;;5048863;28;20201;-78
2023/07/09 09:38:01;;;;;;;5.50;5.07;;;;;;;;;;5066466;28;20192;-79
2023/07/09 09:40:33;;;;;;;6.70;5.00;;;29.50;22.50;;;;;;5067660;28;20182;-78
2023/07/09 09:43:00;;;;;;;5.50;5.00;;;29.60;99.90;;;;;;5066952;28;20540;-76
2023/07/09 09:45:35;;;;;;;5.80;5.13;;;29.50;82.30;;;;;;5066104;28;20280;-76
2023/07/09 09:48:11;;;;;;;6.55;5.03;;;29.60;99.90;;;;;;5062184;28;20193;-76
2023/07/09 09:50:36;;;;;;;5.88;5.40;;;29.70;34.60;;;;;;5064302;28;20193;-75
2023/07/09 09:53:02;;;;;;;5.35;4.85;;;29.60;23.20;;;;;;5065793;28;20185;-75
2023/07/09 09:55:30;;;;;;;5.03;4.63;;;29.70;99.90;;;;;;5066559;28;20202;-74
2023/07/09 09:57:57;;;;;;;5.60;5.10;;;;;;;;;;5064896;28;20185;-75
2023/07/09 10:00:26;;;;;;;5.80;5.03;;;30.30;36.90;;;;;;5065539;28;20182;-75
2023/07/09 10:02:59;;;;;;;5.25;4.80;;;30.20;99.90;;;;;;5064911;28;21032;-77
2023/07/09 10:05:31;;;;;;;5.63;4.95;;;30.10;99.90;;;;;;5065386;28;20193;-75
2023/07/09 10:08:09;;;;;;;5.35;4.93;;;30.10;99.90;;;;;;5063608;28;20649;-74
2023/07/09 10:10:34;;;;;;;5.88;5.35;;;30.20;99.90;;;;;;5065060;28;20284;-74
2023/07/09 10:13:26;;;;;;;5.20;4.80;;;30.20;9.00;;;;;;5065253;28;20322;-75
2023/07/09 10:16:19;;;;;;;5.43;5.03;;;30.40;99.90;;;;;;5054705;28;20221;-74
2023/07/09 10:19:17;;;;;;;5.38;4.88;;;30.50;18.10;;;;;;5064308;28;20228;-77
2023/07/09 10:21:51;;;;;;;6.65;5.00;;;30.60;21.00;;;;;;5065524;28;20173;-75
2023/07/09 10:24:27;;;;;;;5.80;4.75;;;30.80;1.00;;;;;;5066245;28;20799;-76
2023/07/09 10:27:03;;;;;;;5.45;4.93;;;31.10;99.90;;;;;;5066488;28;20196;-75
2023/07/09 10:29:45;;;;;;;5.47;4.97;;;31.00;39.30;;;;;;5065597;28;20177;-74
2023/07/09 10:32:31;;;;;;;5.53;5.03;;;31.00;99.90;;;;;;5065682;28;20621;-75
2023/07/09 10:35:08;;;;;;;5.30;4.85;;;30.70;9.70;;;;;;5062838;28;20806;-75
2023/07/09 10:38:13;;;;;;;5.57;5.07;;;31.10;99.90;;;;;;5045370;28;20282;-74
2023/07/09 10:40:43;;;;;;;5.43;4.80;;;31.00;1.00;;;;;;5066297;28;20518;-74
2023/07/09 10:43:20;;;;;;;5.35;4.88;;;31.30;1.00;;;;;;5064937;28;20306;-75
2023/07/09 10:45:58;;;;;;;5.40;4.90;;;31.40;28.30;;;;;;5065994;28;20217;-74
2023/07/09 10:48:39;;;;;;;5.22;4.80;;;31.70;1.00;;;;;;5064918;28;20174;-75
2023/07/09 10:51:29;;;;;;;5.72;4.90;;;31.70;99.90;;;;;;5064636;28;20177;-75
2023/07/09 10:54:14;;;;;;;6.10;5.45;;;31.40;1.00;;;;;;5064729;28;20201;-74
2023/07/09 10:56:42;;;;;;;5.50;5.10;;;31.60;3.70;;;;;;5064479;28;20303;-74
2023/07/09 10:59:33;;;;;;;5.55;5.03;;;31.60;99.90;;;;;;5046329;28;20594;-75
2023/07/09 11:02:23;;;;;;;5.30;4.80;;;31.50;1.00;;;;;;5063379;28;20181;-75
2023/07/09 11:04:58;;;;;;;5.80;5.10;;;32.00;15.80;;;;;;5036717;28;20725;-75
2023/07/09 11:07:32;;;;;;;5.35;4.85;;;31.70;6.90;;;;;;5063310;28;20292;-76
2023/07/09 11:10:00;;;;;;;5.68;5.20;;;31.80;24.60;;;;;;5064736;28;20190;-76
2023/07/09 11:12:32;;;;;;;5.00;4.60;;;31.80;1.10;;;;;;5064932;28;20667;-74
2023/07/09 11:15:13;;;;;;;5.10;4.70;;;32.10;1.00;;;;;;5064576;28;20189;-75
2023/07/09 11:17:45;;;;;;;4.95;4.55;;;31.70;1.00;;;;;;5064320;28;20916;-75
2023/07/09 11:20:22;;;;;;;5.63;5.10;;;31.90;1.00;;;;;;5064861;28;20173;-76
2023/07/09 11:22:54;;;;;;;5.30;4.90;;;32.00;1.00;;;;;;5062493;28;20272;-75
2023/07/09 11:25:41;;;;;;;7.07;4.95;;;32.10;1.00;;;;;;5064778;28;20196;-74
2023/07/09 11:28:09;;;;;;;5.07;4.57;;;;;;;;;;5064030;28;20644;-74
2023/07/09 11:30:52;;;;;;;5.15;4.75;;;32.00;1.00;;;;;;5047447;28;20189;-74
2023/07/09 11:33:20;;;;;;;4.78;4.38;;;32.10;1.00;;;;;;5065850;28;20174;-75
2023/07/09 11:36:05;;;;;;;4.63;4.22;;;32.00;99.90;;;;;;5047929;28;20560;-75
2023/07/09 11:38:42;;;;;;;5.75;4.53;;;32.30;1.00;;;;;;5062193;28;20238;-75
2023/07/09 11:41:26;;;;;;;5.13;4.68;;;32.20;1.00;;;;;;5045625;28;20185;-76
2023/07/09 11:43:53;;;;;;;4.75;4.35;;;32.30;1.00;;;;;;5063398;28;20197;-75
2023/07/09 11:46:23;;;;;;;4.95;4.45;;;32.20;99.90;;;;;;5063553;28;21405;-75
2023/07/09 11:48:50;;;;;;;4.78;4.32;;;31.90;1.00;;;;;;5055188;28;20181;-76
2023/07/09 11:51:26;;;;;;;6.78;4.53;;;32.10;1.00;;;;;;5062529;28;20196;-75
2023/07/09 11:53:55;;;;;;;5.20;4.70;;;32.10;99.90;;;;;;5064787;28;20187;-77
2023/07/09 11:56:22;;;;;;;4.97;4.47;;;32.60;1.00;;;;;;5065892;28;20254;-76
2023/07/09 11:58:49;;;;;;;5.10;4.60;;;32.60;1.00;;;;;;5065199;28;20264;-76
2023/07/09 12:01:18;;;;;;;5.80;5.30;;;32.40;99.90;;;;;;5066023;28;20223;-76
2023/07/09 12:03:46;;;;;;;6.70;6.10;;;32.70;1.00;;;;;;5049067;28;20186;-77
2023/07/09 12:06:26;;;;;;;6.00;5.50;;;32.50;1.00;;;;;;5065104;28;20276;-76
2023/07/09 12:08:52;;;;;;;9.98;8.98;;;32.60;1.00;;;;;;5067150;28;20181;-76
2023/07/09 12:11:27;;;;;;;11.52;10.52;;;32.70;1.00;;;;;;5067902;28;20182;-76
2023/07/09 12:13:54;;;;;;;10.63;9.63;;;32.20;1.00;;;;;;5067804;28;20212;-76
2023/07/09 12:16:28;;;;;;;9.32;8.48;;;32.30;1.00;;;;;;5066899;28;20209;-75
2023/07/09 12:18:54;;;;;;;12.35;7.07;;;32.40;1.00;;;;;;5067187;28;20188;-76
2023/07/09 12:21:22;;;;;;;6.53;6.00;;;32.50;1.00;;;;;;5068330;28;20176;-75
2023/07/09 12:23:48;;;;;;;6.75;6.18;;;32.70;1.00;;;;;;5047577;28;20258;-77
2023/07/09 12:26:17;;;;;;;7.85;7.05;;;32.70;1.00;;;;;;5066128;28;20262;-75
2023/07/09 12:28:42;;;;;;;6.28;5.78;;;33.00;1.00;;;;;;5066221;28;20745;-76
2023/07/09 12:31:16;;;;;;;5.40;4.90;;;32.70;99.90;;;;;;5068471;28;20181;-77
2023/07/09 12:33:53;;;;;;;5.50;5.00;;;33.00;1.00;;;;;;5066042;28;20189;-76
2023/07/09 12:36:20;;;;;;;5.90;5.40;;;33.10;99.90;;;;;;5067399;28;20568;-76
2023/07/09 12:38:49;;;;;;;6.70;5.70;;;33.10;1.00;;;;;;5065747;28;20177;-74
2023/07/09 12:41:26;;;;;;;6.40;5.57;;;33.10;89.30;;;;;;5067769;28;20165;-75
2023/07/09 12:43:54;;;;;;;5.80;5.30;;;33.00;99.90;;;;;;5049053;28;20183;-75
2023/07/09 12:46:22;;;;;;;5.97;5.47;;;33.20;99.90;;;;;;5047753;28;20646;-76
2023/07/09 12:48:50;;;;;;;5.53;5.05;;;33.10;95.80;;;;;;5054439;28;20181;-75
2023/07/09 12:51:21;;;;;;;5.57;5.05;;;32.80;99.90;;;;;;5064905;28;20188;-77
2023/07/09 12:53:47;;;;;;;5.50;5.00;;;;;;;;;;5065338;28;20181;-75
2023/07/09 12:56:15;;;;;;;5.90;5.30;;;32.60;99.90;;;;;;5056438;28;20213;-76
2023/07/09 12:58:41;;;;;;;5.30;4.80;;;;;;;;;;5045643;28;20237;-76
2023/07/09 13:01:15;;;;;;;5.38;4.97;;;32.40;48.60;;;;;;5064428;28;20178;-76
2023/07/09 13:03:51;;;;;;;5.50;5.00;;;32.60;99.90;;;;;;5062862;28;20644;-76
2023/07/09 13:06:28;;;;;;;5.35;4.85;;;32.80;99.90;;;;;;5065062;28;20219;-77
2023/07/09 13:08:59;;;;;;;5.15;4.70;;;32.90;76.10;;;;;;5064128;28;20513;-76
2023/07/09 13:11:33;;;;;;;5.63;5.13;;;32.70;99.90;;;;;;5064681;28;20181;-76
2023/07/09 13:14:03;;;;;;;7.53;5.65;;;32.90;99.90;;;;;;5063532;28;20640;-75
2023/07/09 13:16:28;;;;;;;5.72;5.22;;;32.70;99.90;;;;;;5068210;28;20263;-76
2023/07/09 13:18:54;;;;;;;5.32;4.82;;;33.40;99.90;;;;;;5053309;28;20880;-77
2023/07/09 13:21:22;;;;;;;5.35;4.88;;;33.60;93.20;;;;;;5069167;28;20213;-76
2023/07/09 13:23:48;;;;;;;5.35;4.95;;;33.60;50.30;;;;;;5065683;28;20234;-77
2023/07/09 13:26:15;;;;;;;5.65;5.15;;;33.50;99.90;;;;;;5050836;28;20232;-76
2023/07/09 13:28:43;;;;;;;5.45;4.93;;;33.60;63.80;;;;;;5067040;28;20197;-78
2023/07/09 13:31:15;;;;;;;5.00;4.60;;;33.50;98.30;;;;;;5052360;28;20187;-76
2023/07/09 13:33:42;;;;;;;6.30;5.00;;;33.60;99.90;;;;;;5061214;28;20189;-77
2023/07/09 13:36:08;;;;;;;6.65;4.90;;;33.40;99.90;;;;;;5066728;28;20201;-76
2023/07/09 13:38:34;;;;;;;5.47;4.72;;;33.80;99.90;;;;;;5059369;28;20230;-78